Time;durP1;ratioP1;P1;durP2;ratioP2;P2;SDS_P1;SDS_P2;PMS_P1;PMS_P2;Temp;Humidity;BMP_temperature;BMP_pressure;BME280_temperature;BME280_humidity;BME280_pressure;Samples;Min_cycle;Max_cycle;Signal;HPM_P1;HPM_P2
2021/12/07 00:00:12;;;;;;;8.07;5.97;;;;;;;12.56;72.92;100463.63;5048028;28;20025;-87
2021/12/07 00:02:38;;;;;;;9.45;6.05;;;;;;;12.30;72.95;100439.00;5038154;28;20048;-87
2021/12/07 00:05:04;;;;;;;9.57;6.40;;;;;;;12.47;72.88;100476.34;5064727;28;20132;-90
2021/12/07 00:07:30;;;;;;;7.97;6.20;;;;;;;12.41;72.97;100466.50;5052446;28;20124;-88
2021/12/07 00:09:56;;;;;;;9.68;6.15;;;;;;;12.59;72.92;100497.81;5052647;28;20505;-89
2021/12/07 00:12:22;;;;;;;11.27;6.18;;;;;;;12.73;73.00;100507.97;5051967;28;20052;-89
2021/12/07 00:14:49;;;;;;;7.85;5.57;;;;;;;12.30;72.96;100440.72;5046828;28;20028;-89
2021/12/07 00:17:15;;;;;;;9.52;6.50;;;;;;;12.39;72.83;100454.19;5038364;28;20087;-89
2021/12/07 00:19:41;;;;;;;8.43;5.90;;;;;;;12.38;72.88;100460.25;5052365;28;20504;-89
2021/12/07 00:22:08;;;;;;;9.05;6.28;;;;;;;12.72;72.58;100511.41;5048424;28;20040;-88
2021/12/07 00:24:35;;;;;;;12.05;6.47;;;;;;;12.46;72.98;100489.38;5043169;28;20030;-89
2021/12/07 00:27:01;;;;;;;7.82;6.00;;;;;;;12.46;73.02;100478.91;5048912;28;20037;-88
2021/12/07 00:29:30;;;;;;;7.82;6.03;;;;;;;12.64;73.40;100503.25;5051609;28;20029;-87
2021/12/07 00:32:21;;;;;;;8.88;6.32;;;;;;;12.75;72.80;100487.97;5052330;28;20037;-87
2021/12/07 00:37:35;;;;;;;9.65;6.65;;;;;;;12.63;73.16;100497.09;5050683;28;20584;-87
2021/12/07 00:40:02;;;;;;;12.23;6.82;;;;;;;12.51;72.83;100454.69;5041471;28;20032;-87
2021/12/07 00:42:27;;;;;;;8.23;6.00;;;;;;;12.74;72.64;100484.47;5047708;28;20021;-86
2021/12/07 00:44:53;;;;;;;9.20;6.05;;;;;;;12.65;73.16;100484.06;5051217;28;20505;-87
2021/12/07 00:47:19;;;;;;;8.95;6.00;;;;;;;12.62;73.05;100469.13;5051191;28;20060;-88
2021/12/07 00:49:45;;;;;;;9.05;5.93;;;;;;;12.53;72.87;100450.41;5052866;28;20092;-88
2021/12/07 00:52:11;;;;;;;9.95;6.05;;;;;;;12.63;72.14;100447.31;5051425;28;20843;-87
2021/12/07 00:54:37;;;;;;;9.48;6.45;;;;;;;12.74;72.64;100486.16;5049502;28;20037;-88
2021/12/07 00:57:05;;;;;;;8.95;6.35;;;;;;;12.75;72.57;100480.09;5062749;28;20090;-87
2021/12/07 00:59:31;;;;;;;7.88;5.90;;;;;;;12.63;72.90;100472.63;5051538;28;20033;-88
2021/12/07 01:01:57;;;;;;;11.20;6.30;;;;;;;12.73;72.67;100485.28;5051232;28;20496;-88
2021/12/07 01:04:25;;;;;;;7.60;6.03;;;;;;;12.51;72.67;100428.50;5050897;28;20067;-87
2021/12/07 01:09:32;;;;;;;8.43;6.18;;;;;;;12.68;73.14;100454.47;5053681;28;20030;-89
2021/12/07 01:25:47;;;;;;;8.75;5.88;;;;;;;12.61;72.60;100404.47;5050790;28;20032;-86
2021/12/07 01:28:25;;;;;;;9.65;6.20;;;;;;;12.66;72.63;100407.28;5052308;28;20086;-87
2021/12/07 01:31:00;;;;;;;10.20;5.85;;;;;;;12.61;72.36;100385.22;5046386;28;20018;-88
2021/12/07 01:39:35;;;;;;;10.90;6.60;;;;;;;12.75;72.61;100404.13;5064946;28;20125;-87
2021/12/07 02:00:15;;;;;;;8.98;6.03;;;;;;;12.66;73.18;100362.75;5037543;28;20517;-87
2021/12/07 02:02:41;;;;;;;8.85;5.93;;;;;;;12.72;73.21;100378.72;5039634;28;20025;-87
2021/12/07 02:05:08;;;;;;;7.88;5.60;;;;;;;12.55;73.21;100327.38;5048238;28;20028;-87
2021/12/07 02:07:34;;;;;;;8.27;5.80;;;;;;;12.80;72.78;100355.41;5049518;28;20056;-86
2021/12/07 02:10:06;;;;;;;7.75;5.80;;;;;;;12.63;73.17;100344.28;5050172;28;20029;-87
2021/12/07 02:12:42;;;;;;;7.95;5.25;;;;;;;12.76;73.72;100371.84;5066145;28;20123;-86
2021/12/07 02:15:19;;;;;;;7.35;5.38;;;;;;;12.39;73.93;100313.69;5048733;28;20029;-86
2021/12/07 02:17:46;;;;;;;7.60;5.53;;;;;;;12.66;72.87;100335.63;5063841;28;20487;-87
2021/12/07 02:20:13;;;;;;;8.23;5.40;;;;;;;12.58;73.26;100327.50;5052412;28;20037;-86
2021/12/07 02:22:39;;;;;;;7.45;5.45;;;;;;;12.43;73.27;100309.47;5050921;28;20040;-86
2021/12/07 02:25:07;;;;;;;7.63;5.63;;;;;;;12.69;73.03;100341.00;5045557;28;20502;-87
2021/12/07 02:27:32;;;;;;;8.63;5.78;;;;;;;12.48;73.91;100336.72;5043454;28;20069;-87
2021/12/07 02:29:58;;;;;;;9.80;5.20;;;;;;;12.53;74.11;100342.13;5058344;28;20060;-86
2021/12/07 02:32:24;;;;;;;6.53;5.25;;;;;;;12.41;73.58;100325.09;5047215;28;20099;-86
2021/12/07 02:34:59;;;;;;;7.32;5.20;;;;;;;12.73;73.04;100329.81;5040668;28;20021;-87
2021/12/07 02:37:27;;;;;;;8.55;5.32;;;;;;;12.77;73.56;100343.09;5033659;28;21547;-86
2021/12/07 02:39:54;;;;;;;8.85;5.60;;;;;;;12.70;73.51;100322.75;5033229;28;20036;-88
2021/12/07 02:42:20;;;;;;;7.70;5.30;;;;;;;12.61;73.30;100304.03;5049284;28;20639;-88
2021/12/07 02:44:46;;;;;;;8.68;5.63;;;;;;;12.72;73.53;100331.56;5049690;28;20033;-88
2021/12/07 02:47:12;;;;;;;6.78;5.20;;;;;;;12.82;73.28;100327.53;5049576;28;20029;-88
2021/12/07 02:49:38;;;;;;;6.78;5.28;;;;;;;12.81;73.24;100334.50;5047424;28;20036;-87
2021/12/07 02:52:05;;;;;;;8.57;5.18;;;;;;;12.62;72.79;100288.38;5038260;28;20064;-88
2021/12/07 02:54:32;;;;;;;9.55;5.50;;;;;;;12.63;73.00;100294.50;5047882;28;20037;-87
2021/12/07 02:56:59;;;;;;;7.22;5.38;;;;;;;12.83;73.03;100340.69;5045243;28;20036;-88
2021/12/07 02:59:26;;;;;;;7.53;5.55;;;;;;;12.89;72.86;100328.66;5050542;28;20098;-87
2021/12/07 03:02:02;;;;;;;7.43;5.18;;;;;;;12.67;72.74;100303.38;5044898;28;20029;-87
2021/12/07 03:04:38;;;;;;;7.13;5.32;;;;;;;12.31;72.70;100239.19;5030976;28;20029;-87
2021/12/07 03:08:24;;;;;;;7.03;5.03;;;;;;;12.63;72.41;100287.53;5058240;28;20040;-87
2021/12/07 03:26:16;;;;;;;7.60;4.88;;;;;;;12.79;73.09;100303.84;5048605;28;20044;-87
2021/12/07 03:28:49;;;;;;;8.30;5.03;;;;;;;12.74;72.51;100264.38;5032025;28;20560;-87
2021/12/07 03:31:16;;;;;;;8.73;5.53;;;;;;;12.84;73.08;100283.94;5050154;28;20090;-87
2021/12/07 03:33:43;;;;;;;6.53;4.75;;;;;;;12.69;73.66;100276.41;5048752;28;20017;-87
2021/12/07 03:36:10;;;;;;;7.53;4.90;;;;;;;12.79;73.73;100282.88;5030480;28;20029;-88
2021/12/07 03:38:36;;;;;;;6.93;4.93;;;;;;;12.81;73.59;100289.09;5043996;28;20051;-88
2021/12/07 03:41:03;;;;;;;6.38;4.93;;;;;;;12.62;73.60;100249.09;5052671;28;20025;-87
2021/12/07 03:43:29;;;;;;;7.97;5.22;;;;;;;12.88;73.03;100285.84;5035689;28;20033;-87
2021/12/07 03:45:54;;;;;;;7.18;5.10;;;;;;;12.82;73.30;100285.59;5052360;28;20556;-87
2021/12/07 03:48:20;;;;;;;6.53;4.80;;;;;;;12.84;73.09;100284.81;5054187;28;20576;-87
2021/12/07 03:50:46;;;;;;;6.97;5.00;;;;;;;12.49;74.15;100248.56;5043611;28;20075;-87
2021/12/07 03:53:13;;;;;;;8.48;5.10;;;;;;;12.84;73.41;100295.31;5053540;28;20037;-88
2021/12/07 03:55:39;;;;;;;7.00;5.30;;;;;;;12.41;73.72;100235.19;5051747;28;20039;-87
2021/12/07 03:58:05;;;;;;;8.43;5.07;;;;;;;12.59;74.16;100269.03;5052287;28;20025;-87
2021/12/07 04:00:34;;;;;;;8.50;5.28;;;;;;;12.60;73.66;100260.34;5052568;28;20171;-87
2021/12/07 04:03:06;;;;;;;6.70;4.80;;;;;;;12.84;73.35;100290.06;5051648;28;20029;-88
2021/12/07 04:05:33;;;;;;;7.55;5.40;;;;;;;12.63;73.35;100249.97;5032691;28;20030;-87
2021/12/07 04:07:59;;;;;;;7.13;5.40;;;;;;;12.93;73.08;100271.19;5060940;28;20045;-87
2021/12/07 04:10:25;;;;;;;7.88;4.75;;;;;;;12.66;72.75;100236.09;5048714;28;20498;-86
2021/12/07 04:12:52;;;;;;;10.45;5.03;;;;;;;12.67;73.53;100243.13;5059283;28;20422;-87
2021/12/07 04:15:18;;;;;;;7.07;5.22;;;;;;;12.95;73.18;100277.38;5048785;28;20499;-87
2021/12/07 04:17:45;;;;;;;;;;;;;;;12.92;72.87;100284.22;5041391;28;20029;-87
2021/12/07 04:20:14;;;;;;;6.68;5.03;;;;;;;12.92;73.27;100284.22;5051600;28;19912;-88
2021/12/07 04:22:39;;;;;;;8.70;5.13;;;;;;;12.86;72.77;100270.91;5044524;28;20060;-88
2021/12/07 04:25:07;;;;;;;6.97;4.80;;;;;;;13.04;72.37;100293.44;5051128;28;20104;-87
2021/12/07 04:27:38;;;;;;;7.25;4.80;;;;;;;13.02;72.66;100296.84;5051913;28;20035;-88
2021/12/07 04:30:14;;;;;;;8.57;5.07;;;;;;;12.74;72.90;100247.75;5036389;28;20043;-88
2021/12/07 04:32:40;;;;;;;7.22;5.22;;;;;;;12.86;72.70;100266.53;5046388;28;20036;-87
2021/12/07 04:35:07;;;;;;;5.82;4.50;;;;;;;13.04;72.63;100279.44;5051717;28;20488;-88
2021/12/07 04:37:33;;;;;;;6.95;4.72;;;;;;;12.77;73.26;100243.53;5046391;28;20029;-87
2021/12/07 04:40:00;;;;;;;6.55;4.63;;;;;;;12.45;73.03;100173.38;5042039;28;20028;-87
2021/12/07 04:42:26;;;;;;;6.45;4.57;;;;;;;12.99;72.99;100270.50;5049171;28;20029;-88
2021/12/07 04:44:55;;;;;;;;;;;;;;;13.02;72.86;100270.63;5067941;28;20032;-88
2021/12/07 04:47:36;;;;;;;6.90;4.65;;;;;;;12.82;72.92;100264.66;5037938;28;19913;-88
2021/12/07 04:58:00;;;;;;;6.80;4.70;;;;;;;12.96;72.75;100288.75;5025611;28;20037;-85
2021/12/07 05:00:26;;;;;;;6.20;4.72;;;;;;;13.04;72.77;100275.09;5052860;28;20776;-88
2021/12/07 05:02:59;;;;;;;7.70;5.15;;;;;;;12.92;72.71;100258.03;5052572;28;20072;-88
2021/12/07 05:05:30;;;;;;;6.15;4.80;;;;;;;12.97;72.98;100259.06;5051553;28;20021;-88
2021/12/07 05:07:58;;;;;;;8.40;5.10;;;;;;;13.06;72.53;100282.09;5051151;28;20061;-88
2021/12/07 05:10:30;;;;;;;7.00;4.68;;;;;;;12.70;72.94;100230.13;5048563;28;20109;-87
2021/12/07 05:13:21;;;;;;;6.65;4.90;;;;;;;13.04;72.98;100292.53;5043652;28;20025;-88
2021/12/07 05:40:09;;;;;;;7.28;5.05;;;;;;;13.09;72.71;100293.59;5037202;28;20036;-87
2021/12/07 05:42:39;;;;;;;6.72;4.50;;;;;;;12.93;72.41;100249.31;5050810;28;20134;-89
2021/12/07 05:45:07;;;;;;;6.57;4.70;;;;;;;12.91;72.26;100277.19;5034060;28;20025;-89
2021/12/07 05:47:36;;;;;;;8.70;5.00;;;;;;;12.86;72.38;100270.91;5030900;28;20033;-88
2021/12/07 05:50:06;;;;;;;8.00;4.75;;;;;;;12.88;72.38;100254.41;5032631;28;20033;-90
2021/12/07 05:52:32;;;;;;;7.63;4.32;;;;;;;12.93;72.68;100271.19;5039999;28;20033;-89
2021/12/07 05:54:58;;;;;;;7.00;4.80;;;;;;;13.06;72.47;100290.88;5048045;28;20535;-89
2021/12/07 05:57:23;;;;;;;6.85;4.50;;;;;;;13.16;72.25;100287.72;5044474;28;20648;-85
2021/12/07 05:59:49;;;;;;;7.07;4.72;;;;;;;12.95;72.25;100256.41;5048505;28;20060;-87
2021/12/07 06:02:16;;;;;;;7.03;4.70;;;;;;;13.09;72.59;100287.47;5047631;28;20482;-86
2021/12/07 06:04:42;;;;;;;5.88;4.80;;;;;;;12.91;72.66;100254.53;5038548;28;20022;-87
2021/12/07 06:07:10;;;;;;;5.22;4.40;;;;;;;12.79;72.85;100220.00;5049100;28;20052;-87
2021/12/07 06:09:36;;;;;;;7.28;4.80;;;;;;;12.94;72.89;100252.00;5066856;28;20033;-87
2021/12/07 06:12:03;;;;;;;5.80;4.57;;;;;;;12.68;72.76;100189.88;5050127;28;20021;-86
2021/12/07 06:14:35;;;;;;;8.00;4.80;;;;;;;13.03;72.93;100259.28;5050651;28;20612;-88
2021/12/07 06:17:01;;;;;;;7.47;4.63;;;;;;;12.82;73.24;100222.72;5044566;28;20043;-87
2021/12/07 06:19:28;;;;;;;7.40;4.90;;;;;;;12.42;72.90;100154.09;5046222;28;20029;-86
2021/12/07 06:21:54;;;;;;;6.38;4.55;;;;;;;12.95;72.45;100231.91;5061804;28;20033;-88
2021/12/07 06:24:20;;;;;;;5.65;4.93;;;;;;;12.88;72.58;100216.81;5049895;28;20078;-87
2021/12/07 06:26:46;;;;;;;7.80;4.78;;;;;;;12.78;72.77;100197.25;5050083;28;20418;-87
2021/12/07 06:29:12;;;;;;;6.65;5.05;;;;;;;12.84;72.59;100207.94;5053160;28;20033;-87
2021/12/07 06:31:37;;;;;;;7.28;4.32;;;;;;;12.86;72.63;100214.13;5039904;28;20483;-88
2021/12/07 06:34:03;;;;;;;7.60;4.95;;;;;;;12.93;72.47;100217.88;5032397;28;20449;-87
2021/12/07 06:36:29;;;;;;;6.68;5.45;;;;;;;12.97;72.67;100231.13;5049928;28;20037;-86
2021/12/07 06:38:55;;;;;;;7.68;4.53;;;;;;;12.59;72.49;100166.88;5047852;28;20618;-87
2021/12/07 06:41:21;;;;;;;;;;;;;;;13.15;72.40;100254.50;5009103;28;20037;-86
2021/12/07 06:43:46;;;;;;;6.30;4.65;;;;;;;13.19;72.23;100260.75;5048401;28;20348;-87
2021/12/07 06:46:13;;;;;;;7.15;5.18;;;;;;;13.06;72.62;100235.84;5065441;28;20029;-89
2021/12/07 06:48:39;;;;;;;8.75;5.10;;;;;;;13.12;72.48;100261.34;5037279;28;20028;-89
2021/12/07 06:51:05;;;;;;;6.18;4.85;;;;;;;12.84;72.48;100206.22;5032963;28;20402;-89
2021/12/07 06:53:35;;;;;;;6.43;5.25;;;;;;;13.06;72.62;100233.22;5029634;28;20142;-89
2021/12/07 06:56:06;;;;;;;5.28;4.20;;;;;;;12.82;72.37;100186.94;5026545;28;20033;-90
2021/12/07 06:58:32;;;;;;;6.75;4.88;;;;;;;12.90;72.30;100202.06;5032259;28;20102;-89
2021/12/07 07:00:58;;;;;;;5.85;4.43;;;;;;;12.95;72.84;100219.72;5041155;28;20022;-89
2021/12/07 07:03:24;;;;;;;6.53;4.75;;;;;;;12.84;72.49;100194.84;5043599;28;20418;-89
2021/12/07 07:05:50;;;;;;;8.25;4.97;;;;;;;12.87;72.05;100187.13;5028895;28;20056;-88
2021/12/07 07:08:15;;;;;;;6.78;4.80;;;;;;;12.71;72.65;100163.81;5050285;28;20652;-87
2021/12/07 07:10:42;;;;;;;6.90;4.57;;;;;;;13.03;72.47;100202.50;5034393;28;20084;-86
2021/12/07 07:13:08;;;;;;;6.15;4.53;;;;;;;12.84;72.38;100177.41;5065360;28;20032;-88
2021/12/07 07:15:34;;;;;;;5.20;4.45;;;;;;;13.26;72.47;100235.63;5063664;28;20082;-88
2021/12/07 07:18:00;;;;;;;;;;;;;;;13.21;72.43;100223.25;5030054;28;20040;-87
2021/12/07 07:20:27;;;;;;;7.68;5.22;;;;;;;13.22;72.57;100224.13;5059977;28;19913;-88
2021/12/07 07:22:52;;;;;;;;;;;;;;;13.26;72.01;100226.03;5016860;28;20403;-88
2021/12/07 07:25:18;;;;;;;7.07;5.00;;;;;;;12.86;72.42;100166.09;5049312;28;19920;-88
2021/12/07 07:27:44;;;;;;;5.97;4.70;;;;;;;13.17;72.47;100223.97;5061384;28;20095;-88
2021/12/07 07:30:12;;;;;;;9.40;5.28;;;;;;;13.16;72.32;100221.28;5040165;28;20490;-88
2021/12/07 07:32:57;;;;;;;6.32;4.88;;;;;;;13.14;72.54;100208.13;5034772;28;20032;-87
2021/12/07 07:35:23;;;;;;;7.28;5.05;;;;;;;13.06;72.49;100178.16;5049972;28;20025;-87
2021/12/07 07:37:48;;;;;;;7.78;5.18;;;;;;;12.83;72.21;100133.69;5045631;28;20025;-88
2021/12/07 07:40:17;;;;;;;6.72;4.88;;;;;;;13.06;72.45;100156.28;5045511;28;20112;-88
2021/12/07 07:42:43;;;;;;;7.28;5.53;;;;;;;12.82;72.57;100124.03;5062098;28;20029;-88
2021/12/07 07:45:09;;;;;;;8.48;5.43;;;;;;;13.03;72.68;100163.19;5065783;28;20021;-87
2021/12/07 07:47:36;;;;;;;7.53;5.00;;;;;;;13.14;72.61;100188.88;5031457;28;20066;-87
2021/12/07 07:50:04;;;;;;;6.90;5.30;;;;;;;13.10;72.62;100177.44;5050448;28;20021;-88
2021/12/07 07:52:30;;;;;;;6.85;5.05;;;;;;;12.65;72.51;100103.34;5049068;28;20142;-87
2021/12/07 07:54:55;;;;;;;8.20;5.18;;;;;;;12.63;72.82;100114.66;5046432;28;20586;-88
2021/12/07 07:57:21;;;;;;;8.15;5.78;;;;;;;12.58;72.87;100107.50;5045879;28;20546;-88
2021/12/07 07:59:46;;;;;;;9.13;5.40;;;;;;;12.93;73.08;100168.06;5031223;28;20022;-88
2021/12/07 08:02:12;;;;;;;7.72;5.15;;;;;;;12.56;73.08;100109.16;5043376;28;20028;-88
2021/12/07 08:04:38;;;;;;;9.60;5.70;;;;;;;12.97;72.92;100162.97;5058616;28;20096;-87
2021/12/07 08:07:04;;;;;;;8.52;5.57;;;;;;;12.98;72.84;100156.91;5030853;28;20527;-89
2021/12/07 08:09:29;;;;;;;12.57;5.43;;;;;;;13.09;73.01;100183.50;5030438;28;20142;-88
2021/12/07 08:11:55;;;;;;;8.20;5.70;;;;;;;12.88;72.86;100144.34;5061060;28;20112;-88
2021/12/07 08:14:21;;;;;;;9.35;5.80;;;;;;;12.85;72.74;100133.75;5050591;28;20036;-88
2021/12/07 08:16:47;;;;;;;6.97;5.28;;;;;;;12.68;73.13;100106.97;5048568;28;20033;-89
2021/12/07 08:19:13;;;;;;;8.43;5.78;;;;;;;12.87;72.72;100132.09;5042068;28;20051;-89
2021/12/07 08:21:38;;;;;;;6.68;5.15;;;;;;;13.09;72.73;100162.53;5024888;28;20108;-87
2021/12/07 08:24:04;;;;;;;12.15;5.90;;;;;;;13.03;72.88;100164.94;5029537;28;20719;-87
2021/12/07 08:26:31;;;;;;;8.68;5.55;;;;;;;12.67;73.18;100092.09;5052609;28;20033;-87
2021/12/07 08:28:58;;;;;;;10.98;6.05;;;;;;;12.73;72.89;100102.78;5058397;28;20108;-86
2021/12/07 08:31:25;;;;;;;9.57;5.32;;;;;;;13.11;72.88;100170.47;5062903;28;20494;-87
2021/12/07 08:33:51;;;;;;;9.90;5.75;;;;;;;12.87;72.46;100120.69;5052008;28;20108;-87
2021/12/07 08:36:17;;;;;;;8.73;5.60;;;;;;;13.15;72.85;100167.97;5035617;28;20116;-87
2021/12/07 08:38:43;;;;;;;10.85;6.10;;;;;;;13.04;73.01;100140.53;5038882;28;20025;-87
2021/12/07 08:41:09;;;;;;;9.95;6.13;;;;;;;13.00;73.25;100141.25;5047528;28;20056;-87
2021/12/07 08:43:36;;;;;;;10.80;5.80;;;;;;;12.97;73.42;100136.78;5050505;28;20033;-87
2021/12/07 08:46:03;;;;;;;11.30;6.43;;;;;;;12.83;72.94;100106.63;5034609;28;20514;-87
2021/12/07 08:48:28;;;;;;;11.75;5.85;;;;;;;13.03;73.09;100131.75;5067888;28;20040;-86
2021/12/07 08:50:55;;;;;;;10.50;5.85;;;;;;;12.66;73.06;100063.22;5051838;28;20025;-89
2021/12/07 08:53:23;;;;;;;11.85;6.50;;;;;;;12.87;72.92;100081.38;5058466;28;20028;-87
2021/12/07 09:01:21;;;;;;;10.32;6.55;;;;;;;13.16;72.89;100105.94;5065763;28;20052;-88
2021/12/07 09:03:47;;;;;;;;;;;;;;;13.27;72.65;100109.84;5037971;28;20050;-87
2021/12/07 09:06:12;;;;;;;10.80;6.22;;;;;;;13.18;72.70;100096.41;5050448;28;20409;-87
2021/12/07 09:08:40;;;;;;;10.57;6.57;;;;;;;13.23;72.57;100105.34;5037453;28;20032;-87
2021/12/07 09:11:06;;;;;;;10.00;6.13;;;;;;;13.26;72.77;100105.41;5041360;28;20029;-88
2021/12/07 09:13:32;;;;;;;10.25;6.00;;;;;;;12.90;72.61;100048.31;5045869;28;20029;-88
2021/12/07 09:15:59;;;;;;;13.35;6.90;;;;;;;13.25;72.80;100098.41;5046327;28;20035;-89
2021/12/07 09:18:24;;;;;;;;;;;;;;;13.30;72.51;100096.84;5051809;28;20095;-89
2021/12/07 09:20:50;;;;;;;9.90;6.05;;;;;;;13.23;72.88;100092.22;5045615;28;19913;-88
2021/12/07 09:23:16;;;;;;;10.93;6.50;;;;;;;13.10;72.81;100071.66;5045628;28;20025;-89
2021/12/07 09:25:43;;;;;;;8.70;6.30;;;;;;;13.06;73.09;100054.06;5049638;28;20026;-87
2021/12/07 09:28:10;;;;;;;10.00;6.15;;;;;;;13.11;72.92;100055.13;5041850;28;20055;-88
2021/12/07 09:30:36;;;;;;;11.20;6.15;;;;;;;13.12;72.84;100059.50;5049678;28;20018;-88
2021/12/07 09:33:02;;;;;;;11.20;6.30;;;;;;;13.06;72.86;100040.94;5032116;28;20021;-87
2021/12/07 09:35:28;;;;;;;9.45;6.07;;;;;;;13.13;72.53;100050.81;5050819;28;20550;-87
2021/12/07 09:37:54;;;;;;;9.85;6.28;;;;;;;13.04;72.66;100043.56;5050480;28;20114;-88
2021/12/07 09:40:22;;;;;;;10.60;6.40;;;;;;;13.30;72.48;100080.22;5050503;28;20055;-87
2021/12/07 09:42:48;;;;;;;9.35;5.90;;;;;;;13.30;72.99;100082.84;5050485;28;20017;-87
2021/12/07 09:45:15;;;;;;;11.48;6.10;;;;;;;13.16;72.62;100056.13;5051660;28;20517;-88
2021/12/07 09:47:41;;;;;;;9.10;6.30;;;;;;;12.92;72.43;100014.31;5050523;28;20096;-88
2021/12/07 09:50:29;;;;;;;9.38;6.35;;;;;;;13.35;72.32;100090.00;5040175;28;20051;-87
2021/12/07 09:52:56;;;;;;;11.43;6.07;;;;;;;13.28;72.82;100081.88;5069820;28;20035;-88
2021/12/07 09:55:25;;;;;;;12.98;6.57;;;;;;;13.08;72.68;100047.13;5043470;28;20056;-88
2021/12/07 09:57:52;;;;;;;9.68;6.35;;;;;;;12.99;72.77;100022.41;5061118;28;20032;-87
2021/12/07 10:00:21;;;;;;;10.40;6.25;;;;;;;13.28;72.84;100072.28;5043483;28;20036;-87
2021/12/07 10:02:49;;;;;;;10.40;6.03;;;;;;;12.66;72.47;99972.44;5039840;28;20605;-88
2021/12/07 10:05:19;;;;;;;10.25;6.22;;;;;;;13.13;72.44;100045.56;5052488;28;20017;-89
2021/12/07 10:07:45;;;;;;;11.48;6.22;;;;;;;12.73;72.25;99960.44;5055502;28;20054;-89
2021/12/07 10:10:26;;;;;;;9.60;6.18;;;;;;;13.35;72.55;100066.41;5034174;28;20124;-89
2021/12/07 10:12:52;;;;;;;10.85;6.20;;;;;;;13.35;72.49;100063.78;5049552;28;20078;-88
2021/12/07 10:15:19;;;;;;;10.35;6.47;;;;;;;13.23;72.36;100037.16;5044396;28;20029;-88
2021/12/07 10:18:09;;;;;;;10.23;6.28;;;;;;;13.36;72.43;100067.31;5062049;28;20102;-87
2021/12/07 10:20:42;;;;;;;11.02;6.15;;;;;;;13.38;72.19;100048.16;5043261;28;20102;-89
2021/12/07 10:23:37;;;;;;;10.95;6.10;;;;;;;13.04;72.41;100004.25;5051348;28;20025;-90
2021/12/07 10:26:08;;;;;;;10.73;6.43;;;;;;;13.29;73.14;100053.09;5040227;28;20044;-89
2021/12/07 10:28:58;;;;;;;10.40;6.50;;;;;;;13.37;72.53;100051.59;5049970;28;20107;-87
2021/12/07 10:31:50;;;;;;;12.00;6.78;;;;;;;13.36;72.85;100044.59;5042416;28;20043;-90
2021/12/07 10:34:36;;;;;;;11.60;6.32;;;;;;;13.23;72.79;100024.94;5054210;28;20683;-90
2021/12/07 10:37:15;;;;;;;11.35;6.57;;;;;;;13.34;72.62;100058.50;5061206;28;20582;-88
2021/12/07 10:39:46;;;;;;;10.35;6.45;;;;;;;13.22;72.68;100024.88;5047537;28;20045;-89
2021/12/07 10:42:32;;;;;;;10.52;6.25;;;;;;;13.36;72.58;100052.47;5032229;28;20112;-86
2021/12/07 10:45:06;;;;;;;10.80;6.55;;;;;;;13.35;72.36;100045.41;5050999;28;20121;-88
2021/12/07 10:47:33;;;;;;;11.25;6.45;;;;;;;13.36;73.07;100056.81;5046425;28;20036;-88
2021/12/07 10:50:04;;;;;;;10.70;6.68;;;;;;;13.30;72.88;100047.03;5066833;28;20028;-90
2021/12/07 10:52:48;;;;;;;9.88;6.05;;;;;;;13.27;72.80;100025.00;5033298;28;20029;-89
2021/12/07 10:55:17;;;;;;;10.02;6.10;;;;;;;13.39;72.79;100046.41;5045672;28;20518;-88
2021/12/07 10:57:51;;;;;;;9.27;6.30;;;;;;;13.42;72.45;100039.53;5050069;28;20029;-86
2021/12/07 11:00:22;;;;;;;10.75;6.38;;;;;;;13.39;72.54;100039.44;5049582;28;20051;-90
2021/12/07 11:02:58;;;;;;;9.90;6.47;;;;;;;13.20;72.75;100011.72;5037089;28;20033;-89
2021/12/07 11:05:35;;;;;;;11.65;6.45;;;;;;;13.07;72.51;99987.72;5049780;28;20033;-90
2021/12/07 11:08:06;;;;;;;10.18;6.45;;;;;;;13.19;73.17;100012.56;5049401;28;20037;-91
2021/12/07 11:10:48;;;;;;;10.25;6.20;;;;;;;13.25;72.92;100019.75;5033006;28;20035;-91
2021/12/07 11:13:35;;;;;;;11.00;6.68;;;;;;;13.43;72.47;100037.81;5034590;28;20055;-91
2021/12/07 11:16:09;;;;;;;10.95;6.80;;;;;;;13.24;72.42;99995.25;5040065;28;20440;-91
2021/12/07 11:18:37;;;;;;;12.10;7.03;;;;;;;13.22;72.66;99981.19;5034603;28;20532;-91
2021/12/07 11:21:08;;;;;;;12.20;6.70;;;;;;;13.21;72.50;99987.28;5040787;28;20021;-91
2021/12/07 11:23:39;;;;;;;11.48;6.70;;;;;;;13.23;72.55;99988.22;5081953;28;20025;-90
2021/12/07 11:31:57;;;;;;;9.80;6.43;;;;;;;13.26;72.54;99966.47;5065649;28;20505;-90
2021/12/07 11:34:27;;;;;;;11.95;6.28;;;;;;;13.40;72.71;100001.88;5034991;28;20086;-90
2021/12/07 11:36:57;;;;;;;11.18;6.97;;;;;;;13.14;72.06;99945.09;5042333;28;20067;-91
2021/12/07 11:39:48;;;;;;;9.73;6.30;;;;;;;13.10;72.38;99948.47;5024810;28;20025;-91
2021/12/07 11:42:25;;;;;;;9.50;6.63;;;;;;;13.32;72.66;100008.63;5063186;28;20021;-92
2021/12/07 11:45:03;;;;;;;9.20;6.50;;;;;;;13.39;73.67;100028.06;5048932;28;20032;-89
2021/12/07 11:47:31;;;;;;;9.95;6.35;;;;;;;13.46;72.71;100009.03;5049528;28;20485;-89
2021/12/07 11:49:59;;;;;;;8.98;5.88;;;;;;;13.41;73.39;100018.50;5032063;28;20025;-89
2021/12/07 11:52:27;;;;;;;10.10;6.38;;;;;;;13.40;72.98;100009.75;5049804;28;20517;-90
2021/12/07 11:54:53;;;;;;;12.75;6.80;;;;;;;13.12;73.00;99973.91;5032810;28;20061;-89
2021/12/07 11:57:26;;;;;;;11.57;6.75;;;;;;;13.41;73.41;100003.66;5038259;28;20110;-89
2021/12/07 11:59:52;;;;;;;13.48;6.70;;;;;;;13.22;72.94;99975.06;5051426;28;20033;-89
2021/12/07 12:02:18;;;;;;;11.52;7.03;;;;;;;13.42;73.49;99996.69;5045666;28;20505;-87
2021/12/07 12:04:44;;;;;;;;;;;;;;;13.49;72.56;99995.16;5047631;28;20048;-88
2021/12/07 12:07:10;;;;;;;10.38;6.50;;;;;;;13.34;72.62;99978.09;5051556;28;19917;-88
2021/12/07 12:09:45;;;;;;;10.93;6.75;;;;;;;13.36;72.60;99973.78;5041915;28;20033;-88
2021/12/07 12:12:39;;;;;;;11.48;6.60;;;;;;;13.36;72.76;99970.28;5047547;28;20049;-88
2021/12/07 12:15:24;;;;;;;9.95;6.45;;;;;;;13.51;72.42;99969.84;5048545;28;20037;-88
2021/12/07 12:18:13;;;;;;;10.85;6.65;;;;;;;13.35;72.58;99935.28;5043863;28;20040;-87
2021/12/07 12:21:00;;;;;;;9.88;7.07;;;;;;;13.45;72.75;99965.31;5052123;28;20033;-88
2021/12/07 12:23:38;;;;;;;12.05;6.72;;;;;;;13.46;72.65;99974.06;5052210;28;20410;-87
2021/12/07 12:26:07;;;;;;;10.05;6.30;;;;;;;13.45;72.63;99973.16;5039586;28;20025;-87
2021/12/07 12:28:47;;;;;;;11.38;6.30;;;;;;;13.32;72.87;99953.56;5048584;28;20058;-86
2021/12/07 12:31:13;;;;;;;11.23;6.55;;;;;;;13.24;72.73;99939.31;5047443;28;20029;-87
2021/12/07 12:33:58;;;;;;;10.88;6.70;;;;;;;13.46;72.94;99976.69;5040750;28;20032;-87
2021/12/07 12:36:26;;;;;;;13.38;7.18;;;;;;;13.41;72.63;99974.81;5051843;28;20036;-87
2021/12/07 12:39:01;;;;;;;10.98;6.53;;;;;;;13.31;73.02;99941.28;5052135;28;20062;-86
2021/12/07 12:41:28;;;;;;;9.75;6.43;;;;;;;13.30;72.71;99936.03;5052038;28;20409;-88
2021/12/07 12:43:56;;;;;;;14.15;6.93;;;;;;;13.27;72.65;99920.16;5051634;28;20045;-87
2021/12/07 12:46:31;;;;;;;10.20;6.85;;;;;;;13.36;73.04;99941.44;5067083;28;20039;-87
2021/12/07 12:49:10;;;;;;;11.13;6.57;;;;;;;13.20;72.78;99900.72;5052489;28;20106;-87
2021/12/07 12:51:48;;;;;;;11.05;6.60;;;;;;;13.36;72.95;99939.69;5059033;28;20037;-87
2021/12/07 12:54:13;;;;;;;13.52;6.65;;;;;;;13.32;72.70;99918.59;5058941;28;20021;-87
2021/12/07 12:56:39;;;;;;;9.23;6.43;;;;;;;13.46;72.98;99929.47;5068567;28;20021;-87
2021/12/07 12:59:09;;;;;;;12.38;7.13;;;;;;;13.34;72.30;99903.81;5051929;28;20037;-87
2021/12/07 13:01:46;;;;;;;12.52;7.13;;;;;;;13.49;72.54;99948.81;5051611;28;20528;-87
2021/12/07 13:04:15;;;;;;;11.38;6.50;;;;;;;13.57;72.17;99941.19;5053064;28;20025;-87
2021/12/07 13:06:53;;;;;;;11.65;6.60;;;;;;;13.18;72.70;99892.81;5049549;28;20078;-87
2021/12/07 13:09:18;;;;;;;12.88;6.63;;;;;;;13.49;72.47;99948.81;5033010;28;20067;-86
2021/12/07 13:12:05;;;;;;;11.18;6.60;;;;;;;13.50;72.51;99952.31;5040459;28;20032;-87
2021/12/07 13:14:33;;;;;;;9.65;6.70;;;;;;;13.40;72.50;99932.81;5049262;28;20478;-86
2021/12/07 13:17:14;;;;;;;10.90;6.47;;;;;;;13.53;72.28;99937.56;5039194;28;20052;-86
2021/12/07 13:20:02;;;;;;;10.13;6.47;;;;;;;13.49;72.69;99937.44;5051950;28;20033;-87